Time;durP1;ratioP1;P1;durP2;ratioP2;P2;SDS_P1;SDS_P2;PMS_P1;PMS_P2;Temp;Humidity;BMP_temperature;BMP_pressure;BME280_temperature;BME280_humidity;BME280_pressure;Samples;Min_cycle;Max_cycle;Signal;HPM_P1;HPM_P2
2022/03/11 00:01:12;;;;;;;;;25.67;22.67;;;;;10.44;61.91;99489.16;5055692;28;45401;-79
2022/03/11 00:03:38;;;;;;;;;33.67;30.33;;;;;10.45;62.30;99482.13;5057020;28;45429;-79
2022/03/11 00:06:03;;;;;;;;;27.67;25.67;;;;;10.42;62.26;99490.13;5033296;28;45444;-79
2022/03/11 00:08:29;;;;;;;;;26.33;24.00;;;;;10.43;62.46;99483.94;5056889;28;45229;-80
2022/03/11 00:10:54;;;;;;;;;28.33;26.00;;;;;10.41;62.49;99476.09;5044451;28;45442;-79
2022/03/11 00:13:19;;;;;;;;;24.00;24.00;;;;;10.42;62.70;99483.09;5057051;28;46307;-79
2022/03/11 00:15:45;;;;;;;;;27.33;21.00;;;;;10.43;62.66;99476.03;5039152;28;45421;-80
2022/03/11 00:18:10;;;;;;;;;29.33;27.00;;;;;10.43;62.92;99470.75;5057610;28;45307;-80
2022/03/11 00:20:36;;;;;;;;;32.00;26.00;;;;;10.42;62.93;99471.69;5046663;28;45378;-80
2022/03/11 00:23:01;;;;;;;;;27.00;25.33;;;;;10.42;63.12;99471.69;5056610;28;46546;-79
2022/03/11 00:25:29;;;;;;;;;24.00;22.67;;;;;10.42;63.03;99466.41;5047330;28;45369;-79
2022/03/11 00:27:55;;;;;;;;;24.67;23.33;;;;;10.43;62.97;99473.41;5039342;28;45484;-80
2022/03/11 00:30:20;;;;;;;;;28.00;25.67;;;;;10.44;62.55;99459.31;5039247;28;45489;-79
2022/03/11 00:32:46;;;;;;;;;37.00;32.67;;;;;10.43;62.10;99465.50;5056827;28;46047;-79
2022/03/11 00:35:12;;;;;;;;;33.33;27.00;;;;;10.42;62.42;99467.28;5050817;28;45381;-79
2022/03/11 00:37:41;;;;;;;;;35.67;29.67;;;;;10.41;62.33;99457.63;5043616;28;45323;-79
2022/03/11 00:40:08;;;;;;;;;32.67;30.00;;;;;10.40;61.97;99452.41;5056431;28;45405;-79
2022/03/11 00:42:36;;;;;;;;;26.33;21.67;;;;;10.40;62.22;99452.41;5038570;28;45728;-79
2022/03/11 00:45:02;;;;;;;;;22.67;21.67;;;;;10.39;62.24;99448.91;5052576;28;45421;-79
2022/03/11 00:47:27;;;;;;;;;37.67;31.67;;;;;10.40;62.51;99450.63;5056956;28;45406;-79
2022/03/11 00:49:53;;;;;;;;;22.00;22.00;;;;;10.37;62.63;99450.78;5035566;28;45436;-79
2022/03/11 00:52:18;;;;;;;;;34.33;29.33;;;;;10.36;62.72;99448.19;5056977;28;46558;-79
2022/03/11 00:54:44;;;;;;;;;32.00;28.67;;;;;10.35;62.94;99446.47;5054921;28;45330;-79
2022/03/11 00:57:09;;;;;;;;;29.33;28.00;;;;;10.33;62.45;99453.56;5056436;28;45399;-79
2022/03/11 00:59:35;;;;;;;;;33.33;29.67;;;;;10.33;62.36;99448.28;5055047;28;45321;-79
2022/03/11 01:02:00;;;;;;;;;31.00;31.00;;;;;10.30;62.42;99451.88;5049868;28;45519;-79
2022/03/11 01:04:26;;;;;;;;;34.33;28.33;;;;;10.29;62.18;99434.34;5056263;28;45487;-79
2022/03/11 01:06:51;;;;;;;;;34.00;32.00;;;;;10.28;62.52;99443.16;5037663;28;45503;-79
2022/03/11 01:09:16;;;;;;;;;33.33;28.00;;;;;10.28;62.27;99431.75;5038172;28;45541;-79
2022/03/11 01:11:42;;;;;;;;;35.00;31.67;;;;;10.27;62.13;99448.47;5048276;28;46370;-79
2022/03/11 01:14:08;;;;;;;;;31.33;30.00;;;;;10.28;62.00;99418.59;5056122;28;45518;-79
2022/03/11 01:16:34;;;;;;;;;38.67;34.33;;;;;10.25;62.30;99430.09;5044717;28;45509;-79
2022/03/11 01:18:59;;;;;;;;;33.33;30.00;;;;;10.24;62.11;99438.03;5056452;28;45523;-80
2022/03/11 01:21:25;;;;;;;;;40.33;34.33;;;;;10.24;62.13;99431.00;5049216;28;45421;-79
2022/03/11 01:23:50;;;;;;;;;36.33;33.33;;;;;10.25;62.09;99427.44;5056260;28;45330;-79
2022/03/11 01:26:16;;;;;;;;;37.00;32.67;;;;;10.28;62.15;99429.97;5056375;28;45246;-81
2022/03/11 01:28:42;;;;;;;;;32.67;28.67;;;;;10.29;62.06;99426.44;5071891;28;45480;-80
2022/03/11 01:31:12;;;;;;;;;33.33;28.67;;;;;10.28;62.09;99422.06;5048535;28;45507;-81
2022/03/11 01:33:42;;;;;;;;;33.67;29.00;;;;;10.29;62.25;99422.94;5051884;28;45267;-80
2022/03/11 01:36:09;;;;;;;;;34.00;28.67;;;;;10.28;61.37;99426.47;5055704;28;45386;-80
2022/03/11 01:38:35;;;;;;;;;31.00;28.67;;;;;10.22;62.17;99430.19;5055964;28;45640;-80
2022/03/11 01:41:01;;;;;;;;;30.00;28.00;;;;;10.20;62.39;99418.88;5054297;28;46792;-80
2022/03/11 01:43:27;;;;;;;;;34.00;31.00;;;;;10.18;62.39;99412.75;5037974;28;45773;-80
2022/03/11 01:45:53;;;;;;;;;28.33;27.67;;;;;10.17;62.71;99407.53;5056499;28;45472;-81
2022/03/11 01:48:19;;;;;;;;;37.00;32.00;;;;;10.17;62.54;99408.38;5055889;28;45452;-81
2022/03/11 01:50:44;;;;;;;;;36.67;32.33;;;;;10.15;62.74;99407.56;5037539;28;46813;-81
2022/03/11 01:53:11;;;;;;;;;35.00;32.33;;;;;10.17;62.52;99404.88;5056214;28;45442;-81
2022/03/11 01:55:38;;;;;;;;;32.00;30.33;;;;;10.17;62.51;99397.84;5054001;28;45823;-81
2022/03/11 01:58:05;;;;;;;;;33.67;32.33;;;;;10.15;62.69;99397.91;5037751;28;45470;-81
2022/03/11 02:00:31;;;;;;;;;30.67;29.00;;;;;10.17;62.49;99395.22;5055721;28;46820;-81
2022/03/11 02:02:57;;;;;;;;;38.00;31.00;;;;;10.15;62.35;99402.31;5055703;28;45443;-80
2022/03/11 02:05:24;;;;;;;;;33.67;32.33;;;;;10.15;62.17;99397.03;5037321;28;45420;-80
2022/03/11 02:07:51;;;;;;;;;34.00;29.33;;;;;10.11;62.39;99400.69;5055866;28;45332;-81
2022/03/11 02:10:16;;;;;;;;;37.00;31.00;;;;;10.10;62.67;99401.59;5047834;28;46612;-81
2022/03/11 02:12:43;;;;;;;;;33.33;30.67;;;;;10.07;62.37;99399.91;5032443;28;45479;-80
2022/03/11 02:15:09;;;;;;;;;42.00;35.67;;;;;10.07;62.43;99405.19;5049288;28;45269;-80
2022/03/11 02:17:35;;;;;;;;;38.00;33.00;;;;;10.03;62.51;99414.13;5053315;28;45251;-80
2022/03/11 02:20:00;;;;;;;;;37.67;35.00;;;;;9.98;62.55;99405.50;5054916;28;46110;-81
2022/03/11 02:22:27;;;;;;;;;33.67;31.67;;;;;9.97;62.91;99402.91;5055495;28;45403;-81
2022/03/11 02:24:53;;;;;;;;;40.00;36.67;;;;;9.96;63.02;99399.41;5055879;28;45446;-80
2022/03/11 02:27:20;;;;;;;;;41.00;34.00;;;;;9.95;63.10;99395.06;5051054;28;45361;-81
2022/03/11 02:29:45;;;;;;;;;29.00;24.67;;;;;9.94;63.55;99400.38;5055414;28;45357;-81
2022/03/11 02:32:11;;;;;;;;;34.33;30.67;;;;;9.94;63.39;99401.25;5055264;28;45372;-80
2022/03/11 02:34:40;;;;;;;;;36.67;33.00;;;;;9.96;63.39;99395.94;5055700;28;45522;-80
2022/03/11 02:37:06;;;;;;;;;36.00;32.33;;;;;9.96;63.21;99399.41;5059365;28;45417;-80
2022/03/11 02:39:31;;;;;;;;;35.67;33.33;;;;;9.98;63.23;99400.22;5054558;28;45550;-81
2022/03/11 02:41:58;;;;;;;;;41.67;34.67;;;;;10.00;63.28;99402.81;5050815;28;45493;-80
2022/03/11 02:44:24;;;;;;;;;35.67;33.67;;;;;10.02;63.05;99401.00;5055688;28;45399;-80
2022/03/11 02:46:50;;;;;;;;;36.33;34.33;;;;;10.03;63.08;99397.47;5055236;28;45358;-80
2022/03/11 02:49:16;;;;;;;;;40.00;35.00;;;;;10.04;62.99;99394.78;5055181;28;45457;-80
2022/03/11 02:51:41;;;;;;;;;47.33;36.67;;;;;10.03;62.57;99400.94;5036789;28;45346;-81
2022/03/11 02:54:07;;;;;;;;;38.67;35.33;;;;;10.00;62.36;99400.19;5055328;28;45951;-81
2022/03/11 02:56:32;;;;;;;;;44.33;38.00;;;;;9.96;61.84;99402.06;5053248;28;45426;-80
2022/03/11 02:58:58;;;;;;;;;49.33;38.33;;;;;9.94;62.17;99401.25;5054750;28;45901;-80
2022/03/11 03:01:23;;;;;;;;;45.67;34.00;;;;;9.93;62.24;99404.78;5042928;28;45395;-80
2022/03/11 03:03:49;;;;;;;;;48.33;40.00;;;;;9.92;62.34;99412.72;5054816;28;46004;-81
2022/03/11 03:06:14;;;;;;;;;47.00;37.00;;;;;9.89;62.17;99403.16;5052547;28;45863;-81
2022/03/11 03:08:39;;;;;;;;;47.67;37.33;;;;;9.88;61.83;99390.06;5058267;28;45665;-80
2022/03/11 03:11:05;;;;;;;;;45.00;37.67;;;;;9.85;61.87;99395.44;5058498;28;45342;-80
2022/03/11 03:13:30;;;;;;;;;43.67;38.67;;;;;9.80;61.94;99404.34;5040513;28;45335;-80
2022/03/11 03:15:56;;;;;;;;;49.67;38.67;;;;;9.77;61.76;99403.56;5046923;28;45338;-81
2022/03/11 03:18:21;;;;;;;;;40.67;35.00;;;;;9.76;61.63;99388.66;5058423;28;46316;-80
2022/03/11 03:20:47;;;;;;;;;40.67;36.00;;;;;9.74;61.84;99391.34;5057822;28;45471;-80
2022/03/11 03:23:13;;;;;;;;;48.67;37.33;;;;;9.74;61.05;99390.50;5058211;28;45377;-80
2022/03/11 03:25:38;;;;;;;;;39.33;36.00;;;;;9.72;61.21;99376.50;5035836;28;45434;-81
2022/03/11 03:28:04;;;;;;;;;51.33;42.33;;;;;9.70;61.05;99381.84;5058347;28;46725;-80
2022/03/11 03:30:29;;;;;;;;;51.00;40.00;;;;;9.69;60.89;99389.81;5058239;28;45397;-80
2022/03/11 03:32:55;;;;;;;;;52.00;42.00;;;;;9.66;61.04;99382.84;5058280;28;45393;-80
2022/03/11 03:35:20;;;;;;;;;51.00;42.00;;;;;9.63;60.73;99377.69;5055799;28;45433;-80
2022/03/11 03:37:46;;;;;;;;;49.00;39.00;;;;;9.58;60.89;99381.38;5057990;28;45460;-81
2022/03/11 03:40:11;;;;;;;;;52.00;39.00;;;;;9.55;60.92;99368.34;5053977;28;45327;-81
2022/03/11 03:42:37;;;;;;;;;53.33;42.33;;;;;9.51;60.96;99367.56;5057780;28;45362;-80
2022/03/11 03:45:03;;;;;;;;;50.00;41.00;;;;;9.48;61.15;99378.19;5057510;28;45508;-80
2022/03/11 03:47:29;;;;;;;;;51.67;43.33;;;;;9.47;61.08;99381.72;5058136;28;45535;-80
2022/03/11 03:49:54;;;;;;;;;53.67;43.00;;;;;9.45;61.16;99384.41;5057229;28;45344;-81
2022/03/11 03:52:20;;;;;;;;;39.00;35.00;;;;;9.45;61.39;99375.63;5058123;28;45522;-80
2022/03/11 03:54:45;;;;;;;;;37.67;34.00;;;;;9.44;61.47;99380.03;5039695;28;45882;-80
2022/03/11 03:57:11;;;;;;;;;42.67;37.33;;;;;9.41;61.70;99379.25;5039656;28;48075;-81
2022/03/11 03:59:37;;;;;;;;;50.33;41.00;;;;;9.40;61.54;99385.44;5057666;28;45525;-81
2022/03/11 04:02:03;;;;;;;;;55.00;44.33;;;;;9.38;61.74;99393.38;5057547;28;45299;-80
2022/03/11 04:04:28;;;;;;;;;50.00;36.33;;;;;9.36;61.62;99374.16;5056686;28;45475;-80
2022/03/11 04:06:54;;;;;;;;;48.00;40.33;;;;;9.34;61.39;99356.72;5044777;28;46163;-80
2022/03/11 04:09:19;;;;;;;;;53.67;40.67;;;;;9.28;61.92;99372.66;5057394;28;45409;-80
2022/03/11 04:11:45;;;;;;;;;48.33;39.00;;;;;9.24;62.00;99384.19;5045763;28;45436;-80
2022/03/11 04:14:11;;;;;;;;;54.67;43.33;;;;;9.24;62.36;99387.69;5039745;28;45702;-80
2022/03/11 04:16:36;;;;;;;;;47.67;39.00;;;;;9.25;62.45;99375.38;5048306;28;45783;-80
2022/03/11 04:19:02;;;;;;;;;45.67;38.67;;;;;9.25;62.13;99370.13;5056115;28;45361;-80
2022/03/11 04:21:28;;;;;;;;;46.00;39.33;;;;;9.23;62.12;99364.03;5032641;28;45414;-81
2022/03/11 04:23:53;;;;;;;;;48.33;38.33;;;;;9.21;62.09;99355.38;5038615;28;45588;-80
2022/03/11 04:26:19;;;;;;;;;50.67;40.33;;;;;9.19;62.27;99346.66;5050379;28;46545;-81
2022/03/11 04:28:44;;;;;;;;;50.00;40.67;;;;;9.19;62.68;99338.78;5056868;28;45382;-81
2022/03/11 04:31:12;;;;;;;;;41.33;36.67;;;;;9.17;62.32;99319.53;5057584;28;45415;-81
2022/03/11 04:33:39;;;;;;;;;47.67;40.33;;;;;9.14;62.27;99311.75;5057190;28;45514;-81
2022/03/11 04:36:06;;;;;;;;;50.33;41.00;;;;;9.09;62.31;99319.75;5056904;28;46233;-81
2022/03/11 04:38:33;;;;;;;;;49.00;40.00;;;;;9.05;62.80;99328.66;5056914;28;45409;-81
2022/03/11 04:40:58;;;;;;;;;52.33;43.00;;;;;9.01;63.15;99337.56;5057341;28;45342;-80
2022/03/11 04:43:24;;;;;;;;;47.67;39.67;;;;;9.01;63.09;99354.19;5055386;28;45564;-81
2022/03/11 04:45:50;;;;;;;;;46.67;39.00;;;;;9.01;62.75;99348.94;5063850;28;46113;-81
2022/03/11 04:48:15;;;;;;;;;42.67;35.67;;;;;9.01;62.55;99354.19;5063045;28;45870;-81
2022/03/11 04:50:41;;;;;;;;;51.33;41.67;;;;;9.01;62.52;99355.97;5057191;28;45421;-79
2022/03/11 04:53:06;;;;;;;;;44.33;37.00;;;;;9.01;62.35;99355.97;5056719;28;45436;-81
2022/03/11 04:55:33;;;;;;;;;48.33;41.00;;;;;9.02;62.76;99340.16;5054613;28;45516;-79
2022/03/11 04:57:59;;;;;;;;;47.00;38.00;;;;;9.01;62.61;99350.72;5056449;28;45345;-79
2022/03/11 05:00:25;;;;;;;;;44.33;38.33;;;;;9.00;63.65;99354.25;5056294;28;45239;-80
2022/03/11 05:02:51;;;;;;;;;53.67;41.67;;;;;9.00;63.71;99355.09;5056702;28;45251;-80
2022/03/11 05:05:16;;;;;;;;;46.33;39.00;;;;;9.03;63.37;99359.41;5056354;28;45420;-80
2022/03/11 05:07:42;;;;;;;;;44.00;36.00;;;;;9.03;63.27;99367.31;5056476;28;45376;-74
2022/03/11 05:10:10;;;;;;;;;45.67;38.67;;;;;9.01;62.90;99340.19;5037801;28;45403;-74
2022/03/11 05:12:40;;;;;;;;;50.33;41.67;;;;;9.01;62.33;99327.91;5056112;28;45417;-74
2022/03/11 05:15:06;;;;;;;;;41.67;35.00;;;;;8.99;62.61;99327.09;5031765;28;47876;-74
2022/03/11 05:17:31;;;;;;;;;42.67;33.33;;;;;8.99;62.47;99328.84;5053133;28;45510;-74
2022/03/11 05:19:57;;;;;;;;;47.67;39.33;;;;;8.99;62.29;99324.47;5053908;28;45295;-74
2022/03/11 05:22:23;;;;;;;;;39.00;33.00;;;;;8.99;62.16;99306.06;5055662;28;45476;-74
2022/03/11 05:24:48;;;;;;;;;47.00;38.33;;;;;9.00;62.33;99325.31;5063665;28;45397;-74
2022/03/11 05:27:14;;;;;;;;;45.00;38.33;;;;;8.97;62.04;99309.63;5050861;28;45350;-73
2022/03/11 05:29:42;;;;;;;;;41.33;36.00;;;;;8.94;62.05;99314.97;5035459;28;45423;-74
2022/03/11 05:32:09;;;;;;;;;40.00;35.33;;;;;8.90;62.35;99318.59;5050729;28;45412;-74
2022/03/11 05:34:38;;;;;;;;;46.67;39.00;;;;;8.87;62.61;99319.59;5054297;28;46198;-74
2022/03/11 05:37:05;;;;;;;;;43.67;37.00;;;;;8.85;62.96;99323.16;5033504;28;45773;-74
2022/03/11 05:39:31;;;;;;;;;40.67;36.33;;;;;8.86;62.68;99309.09;5055319;28;45443;-74
2022/03/11 05:41:57;;;;;;;;;50.00;34.00;;;;;8.83;62.61;99304.78;5051489;28;45514;-74
2022/03/11 05:44:23;;;;;;;;;38.00;34.33;;;;;8.80;62.58;99320.66;5037007;28;46485;-74
2022/03/11 05:46:48;;;;;;;;;46.67;38.00;;;;;8.80;62.44;99338.19;5050751;28;45318;-74
2022/03/11 05:49:14;;;;;;;;;39.00;34.33;;;;;8.78;61.27;99290.91;5055799;28;45577;-74
2022/03/11 05:51:39;;;;;;;;;45.67;36.00;;;;;8.72;61.32;99268.28;5051295;28;45397;-74
2022/03/11 05:54:05;;;;;;;;;43.33;37.33;;;;;8.65;61.71;99303.56;5055411;28;45698;-74
2022/03/11 05:56:31;;;;;;;;;42.00;35.33;;;;;8.64;61.50;99303.63;5054232;28;45526;-74
2022/03/11 05:58:57;;;;;;;;;40.00;33.00;;;;;8.62;61.99;99287.03;5055782;28;45323;-74
2022/03/11 06:01:22;;;;;;;;;38.67;33.00;;;;;8.59;62.19;99297.63;5035797;28;45458;-74
2022/03/11 06:03:48;;;;;;;;;43.67;35.00;;;;;8.60;62.43;99299.34;5055398;28;45999;-74
2022/03/11 06:06:15;;;;;;;;;39.00;33.33;;;;;8.60;62.31;99294.09;5054464;28;45429;-74
2022/03/11 06:08:40;;;;;;;;;40.67;34.33;;;;;8.60;62.56;99304.59;5054503;28;45442;-74
2022/03/11 06:11:06;;;;;;;;;43.67;36.33;;;;;8.59;62.66;99297.63;5036759;28;45778;-74
2022/03/11 06:13:32;;;;;;;;;45.67;37.67;;;;;8.61;62.72;99308.97;5052729;28;47927;-74
2022/03/11 06:15:57;;;;;;;;;37.67;35.33;;;;;8.64;62.54;99307.09;5034002;28;45665;-74
2022/03/11 06:18:23;;;;;;;;;37.00;34.00;;;;;8.63;62.62;99300.13;5036615;28;45461;-74
2022/03/11 06:20:48;;;;;;;;;43.33;36.67;;;;;8.65;62.29;99303.56;5044951;28;45393;-74
2022/03/11 06:23:14;;;;;;;;;45.67;39.33;;;;;8.66;62.49;99304.44;5054560;28;45972;-74
2022/03/11 06:25:39;;;;;;;;;42.33;36.33;;;;;8.67;62.25;99298.28;5051781;28;45513;-74
2022/03/11 06:28:05;;;;;;;;;37.67;34.00;;;;;8.67;62.55;99306.16;5054232;28;45385;-74
2022/03/11 06:30:31;;;;;;;;;37.00;34.33;;;;;8.70;62.43;99312.19;5030413;28;45530;-74
2022/03/11 06:32:56;;;;;;;;;35.00;33.00;;;;;8.72;61.89;99307.72;5054249;28;46143;-74
2022/03/11 06:35:22;;;;;;;;;29.67;23.33;;;;;8.74;62.16;99297.16;5048215;28;45448;-74
2022/03/11 06:37:50;;;;;;;;;35.33;30.33;;;;;8.75;62.08;99285.75;5036279;28;45342;-75
2022/03/11 06:40:16;;;;;;;;;46.33;37.67;;;;;8.74;61.71;99286.66;5051720;28;45366;-74
2022/03/11 06:42:44;;;;;;;;;32.33;28.33;;;;;8.72;62.14;99291.09;5055639;28;45479;-74
2022/03/11 06:45:12;;;;;;;;;43.33;36.67;;;;;8.71;62.25;99294.66;5035402;28;45469;-74
2022/03/11 06:47:41;;;;;;;;;48.67;39.67;;;;;8.71;62.50;99300.75;5054310;28;45386;-75
2022/03/11 06:50:08;;;;;;;;;41.00;35.33;;;;;8.70;62.45;99311.34;5033985;28;45422;-65
2022/03/11 06:52:34;;;;;;;;;44.67;36.00;;;;;8.71;62.51;99320.94;5053392;28;45451;-67
2022/03/11 06:55:00;;;;;;;;;40.00;34.67;;;;;8.70;62.21;99329.72;5050673;28;45492;-67
2022/03/11 06:57:26;;;;;;;;;41.67;36.67;;;;;8.69;62.17;99331.50;5028347;28;45543;-67
2022/03/11 06:59:52;;;;;;;;;44.67;36.33;;;;;8.73;62.29;99341.00;5045569;28;45450;-67
2022/03/11 07:02:18;;;;;;;;;46.00;36.33;;;;;8.76;61.78;99334.78;5051327;28;45349;-67
2022/03/11 07:04:44;;;;;;;;;38.67;33.67;;;;;8.73;61.69;99313.84;5053721;28;45326;-67
2022/03/11 07:07:10;;;;;;;;;38.67;36.33;;;;;8.72;61.93;99344.53;5052982;28;45330;-66
2022/03/11 07:09:36;;;;;;;;;36.67;31.67;;;;;8.74;61.92;99350.59;5048949;28;45430;-66
2022/03/11 07:12:03;;;;;;;;;44.00;36.33;;;;;8.79;61.79;99336.47;5051421;28;45439;-67
2022/03/11 07:14:33;;;;;;;;;42.00;33.00;;;;;8.85;61.70;99359.97;5051861;28;45396;-66
2022/03/11 07:16:59;;;;;;;;;41.67;37.67;;;;;8.92;61.89;99359.72;5038493;28;45432;-66
2022/03/11 07:19:27;;;;;;;;;39.33;33.67;;;;;8.96;61.99;99361.34;5050055;28;45490;-66
2022/03/11 07:21:53;;;;;;;;;42.67;35.33;;;;;8.99;61.69;99363.03;5051263;28;45470;-67
2022/03/11 07:24:18;;;;;;;;;52.00;38.33;;;;;9.06;61.86;99361.94;5049624;28;45403;-67
2022/03/11 07:26:44;;;;;;;;;37.33;35.00;;;;;9.14;61.93;99349.44;5048091;28;45441;-67
2022/03/11 07:29:09;;;;;;;;;42.33;36.00;;;;;9.25;61.98;99371.00;5048720;28;45560;-67
2022/03/11 07:31:34;;;;;;;;;41.33;33.00;;;;;9.35;61.27;99354.03;5046459;28;45741;-66
2022/03/11 07:34:00;;;;;;;;;36.33;34.33;;;;;9.43;60.57;99361.66;5052064;28;45465;-67
2022/03/11 07:36:25;;;;;;;;;37.33;34.00;;;;;9.49;60.12;99372.00;5041356;28;45412;-66
2022/03/11 07:38:51;;;;;;;;;49.00;35.00;;;;;9.53;59.87;99372.78;5049891;28;45529;-66
2022/03/11 07:41:17;;;;;;;;;44.33;35.67;;;;;9.61;59.79;99366.34;5030143;28;47302;-66
2022/03/11 07:43:46;;;;;;;;;43.67;37.00;;;;;9.66;59.48;99382.00;5057723;28;45511;-66
2022/03/11 07:46:14;;;;;;;;;44.67;37.67;;;;;9.73;59.51;99365.06;5050857;28;45428;-68
2022/03/11 07:48:40;;;;;;;;;40.33;33.67;;;;;9.76;59.58;99344.78;5052802;28;45364;-69
2022/03/11 07:51:06;;;;;;;;;44.00;38.00;;;;;9.79;59.17;99373.66;5045345;28;45435;-69
2022/03/11 07:53:32;;;;;;;;;45.33;37.67;;;;;9.84;59.08;99355.06;5051950;28;45415;-69
2022/03/11 07:55:57;;;;;;;;;39.00;33.33;;;;;9.89;58.99;99370.69;5050836;28;45401;-69
2022/03/11 07:58:24;;;;;;;;;49.67;39.00;;;;;9.97;58.93;99359.00;5057100;28;45317;-69
2022/03/11 08:00:50;;;;;;;;;45.33;36.00;;;;;10.06;59.01;99348.13;5027756;28;45494;-69
2022/03/11 08:03:16;;;;;;;;;48.00;36.00;;;;;10.16;58.83;99353.97;5054777;28;45244;-69
2022/03/11 08:05:42;;;;;;;;;46.33;34.67;;;;;10.30;59.19;99335.94;5047592;28;45733;-69
2022/03/11 08:08:08;;;;;;;;;42.00;36.00;;;;;10.37;59.34;99350.63;5051518;28;45321;-69
2022/03/11 08:10:36;;;;;;;;;43.67;36.67;;;;;10.49;58.89;99339.63;5033045;28;46187;-69
2022/03/11 08:13:02;;;;;;;;;34.00;31.67;;;;;10.63;57.88;99344.41;5048702;28;45504;-69
2022/03/11 08:15:27;;;;;;;;;45.33;37.67;;;;;10.73;57.38;99331.72;5030365;28;45473;-69
2022/03/11 08:17:52;;;;;;;;;48.33;39.00;;;;;10.80;57.29;99326.16;5055060;28;45472;-69
2022/03/11 08:20:18;;;;;;;;;42.00;35.33;;;;;10.86;56.67;99324.22;5060257;28;47778;-69
2022/03/11 08:22:45;;;;;;;;;37.33;32.00;;;;;10.90;56.24;99321.41;5038343;28;45407;-69
2022/03/11 08:25:11;;;;;;;;;43.33;36.67;;;;;10.97;56.24;99322.91;5034098;28;45471;-69
2022/03/11 08:27:37;;;;;;;;;43.33;34.67;;;;;10.98;56.24;99308.78;5056436;28;45459;-69
2022/03/11 08:30:05;;;;;;;;;45.00;36.33;;;;;10.99;56.24;99301.72;5056325;28;45500;-69
2022/03/11 08:32:31;;;;;;;;;37.00;34.00;;;;;11.04;56.41;99300.66;5056329;28;45688;-69
2022/03/11 08:34:57;;;;;;;;;38.00;34.67;;;;;11.08;56.31;99309.28;5052945;28;45334;-69
2022/03/11 08:37:22;;;;;;;;;37.67;30.67;;;;;11.13;55.97;99307.31;5044759;28;45659;-69
2022/03/11 08:39:48;;;;;;;;;43.67;36.67;;;;;11.17;55.72;99301.88;5053979;28;45323;-69
2022/03/11 08:42:13;;;;;;;;;42.67;34.00;;;;;11.19;56.69;99313.22;5053640;28;45420;-69
2022/03/11 08:44:39;;;;;;;;;49.00;40.00;;;;;11.28;56.52;99296.16;5055069;28;45393;-69
2022/03/11 08:47:04;;;;;;;;;37.00;32.33;;;;;11.35;56.48;99288.88;5069487;28;45378;-69
2022/03/11 08:49:30;;;;;;;;;38.00;32.33;;;;;11.37;56.12;99294.94;5065147;28;45513;-69
2022/03/11 08:51:56;;;;;;;;;45.67;34.00;;;;;11.45;56.01;99283.13;5055340;28;45428;-69
2022/03/11 08:54:21;;;;;;;;;41.00;34.00;;;;;11.56;55.76;99281.84;5056483;28;45453;-69
2022/03/11 08:56:47;;;;;;;;;40.67;34.67;;;;;11.65;55.57;99287.59;5049552;28;45428;-70
2022/03/11 08:59:12;;;;;;;;;44.67;37.33;;;;;11.74;55.48;99273.13;5037985;28;45556;-70
2022/03/11 09:01:38;;;;;;;;;40.33;34.67;;;;;11.83;55.76;99276.28;5052391;28;45585;-70
2022/03/11 09:04:03;;;;;;;;;46.00;37.33;;;;;11.91;55.10;99281.22;5055964;28;45438;-69
2022/03/11 09:06:30;;;;;;;;;49.33;41.00;;;;;12.00;54.75;99272.06;5046218;28;45517;-70
2022/03/11 09:08:56;;;;;;;;;35.00;31.33;;;;;12.00;55.12;99262.34;5056165;28;46216;-70
2022/03/11 09:11:21;;;;;;;;;34.33;29.00;;;;;11.96;54.88;99268.69;5029490;28;45710;-70
2022/03/11 09:13:49;;;;;;;;;39.67;35.00;;;;;11.98;54.68;99271.28;5038029;28;45469;-69
2022/03/11 09:16:14;;;;;;;;;47.67;37.33;;;;;12.01;54.24;99235.00;5034958;28;45603;-70
2022/03/11 09:18:40;;;;;;;;;42.00;35.33;;;;;12.03;54.75;99241.09;5055286;28;45388;-70
2022/03/11 09:21:05;;;;;;;;;41.33;34.00;;;;;12.03;54.30;99246.38;5032856;28;45604;-69
2022/03/11 09:23:31;;;;;;;;;33.67;31.33;;;;;12.10;54.46;99220.50;5055481;28;45461;-70
2022/03/11 09:25:56;;;;;;;;;38.67;33.33;;;;;12.18;54.58;99237.75;5062458;28;45308;-70
2022/03/11 09:28:22;;;;;;;;;44.33;37.00;;;;;12.30;53.83;99233.69;5054806;28;45389;-70
2022/03/11 09:30:48;;;;;;;;;36.00;33.33;;;;;12.37;53.92;99232.50;5047576;28;45722;-70
2022/03/11 09:33:13;;;;;;;;;40.33;35.67;;;;;12.46;53.74;99240.00;5051569;28;45483;-70
2022/03/11 09:35:39;;;;;;;;;47.00;34.00;;;;;12.62;53.41;99228.72;5050722;28;45549;-70
2022/03/11 09:38:04;;;;;;;;;51.33;40.33;;;;;12.68;53.38;99220.50;5054926;28;46171;-69
2022/03/11 09:40:31;;;;;;;;;42.67;34.00;;;;;12.75;54.06;99228.06;5051529;28;45448;-67
2022/03/11 09:42:58;;;;;;;;;40.67;34.67;;;;;12.81;54.48;99219.84;5024600;28;45504;-70
2022/03/11 09:45:26;;;;;;;;;38.67;32.33;;;;;12.75;55.18;99206.91;5050020;28;45309;-71
2022/03/11 09:47:53;;;;;;;;;29.67;29.00;;;;;12.74;55.62;99204.31;5054621;28;46143;-67
2022/03/11 09:50:19;;;;;;;;;31.33;30.67;;;;;12.80;56.00;99186.38;5051976;28;45667;-69
2022/03/11 09:52:47;;;;;;;;;25.33;25.33;;;;;12.83;56.19;99180.94;5054886;28;45361;-69
2022/03/11 09:55:13;;;;;;;;;32.00;28.67;;;;;12.85;56.10;99187.03;5051198;28;45546;-69
2022/03/11 09:57:38;;;;;;;;;30.33;26.67;;;;;12.93;56.24;99178.69;5024528;28;46190;-69
2022/03/11 10:00:05;;;;;;;;;11.67;11.67;;;;;13.00;55.66;99184.56;5048361;28;45470;-69
2022/03/11 10:02:33;;;;;;;;;25.33;21.00;;;;;13.06;55.20;99177.19;5052273;28;45483;-70
2022/03/11 10:04:59;;;;;;;;;22.67;21.00;;;;;13.16;54.61;99167.88;5051424;28;45565;-70
2022/03/11 10:07:27;;;;;;;;;22.67;17.67;;;;;13.28;54.20;99155.81;5050389;28;46373;-68
2022/03/11 10:09:54;;;;;;;;;24.00;21.00;;;;;13.45;53.70;99157.59;5046102;28;45369;-68
2022/03/11 10:12:22;;;;;;;;;25.67;25.00;;;;;13.62;53.21;99155.81;5046979;28;45431;-68
2022/03/11 10:15:02;;;;;;;;;33.67;28.33;;;;;13.80;53.08;99143.38;5060622;28;45473;-68
2022/03/11 10:17:37;;;;;;;;;29.33;24.67;;;;;13.91;52.98;99143.66;5030228;28;46302;-68
2022/03/11 10:20:11;;;;;;;;;30.00;24.33;;;;;14.09;52.48;99148.91;5030534;28;45374;-68
2022/03/11 10:22:38;;;;;;;;;29.67;27.67;;;;;14.25;52.04;99136.53;5046569;28;45464;-69
2022/03/11 10:25:19;;;;;;;;;28.00;23.00;;;;;14.31;52.15;99130.91;5049075;28;45520;-68
2022/03/11 10:28:04;;;;;;;;;27.33;24.00;;;;;14.38;52.18;99131.44;5040334;28;45521;-68
2022/03/11 10:30:31;;;;;;;;;28.33;24.00;;;;;14.47;51.61;99120.34;5053513;28;45566;-68
2022/03/11 10:33:00;;;;;;;;;27.33;24.67;;;;;14.47;51.89;99120.34;5035993;28;45425;-68
2022/03/11 10:35:34;;;;;;;;;22.67;19.33;;;;;14.43;51.13;99114.34;5031292;28;45682;-68
2022/03/11 10:38:03;;;;;;;;;23.00;23.00;;;;;14.33;50.92;99129.03;5042122;28;46318;-68
2022/03/11 10:40:31;;;;;;;;;21.33;20.00;;;;;14.26;50.83;99130.28;5046761;28;45460;-69
2022/03/11 10:43:19;;;;;;;;;23.67;21.33;;;;;14.26;51.19;99122.34;5053704;28;45477;-68
2022/03/11 10:45:45;;;;;;;;;29.00;25.00;;;;;14.24;51.64;99121.59;5034168;28;45771;-68
2022/03/11 10:48:11;;;;;;;;;22.33;21.33;;;;;14.28;50.81;99126.63;5035545;28;45454;-69
2022/03/11 10:50:37;;;;;;;;;26.67;24.33;;;;;14.36;50.25;99112.09;5032198;28;45446;-68
2022/03/11 10:53:07;;;;;;;;;22.33;20.00;;;;;14.36;50.03;99110.31;5044362;28;45386;-68
2022/03/11 10:55:39;;;;;;;;;25.33;24.33;;;;;14.38;50.12;99107.56;5054208;28;45502;-68
2022/03/11 10:58:06;;;;;;;;;27.33;24.00;;;;;14.43;50.84;99105.53;5048593;28;46202;-68
2022/03/11 11:00:39;;;;;;;;;20.67;20.33;;;;;14.50;49.55;99110.41;5049934;28;45473;-68
2022/03/11 11:03:09;;;;;;;;;27.67;26.67;;;;;14.56;49.48;99115.38;5048712;28;45411;-68
2022/03/11 11:05:36;;;;;;;;;22.33;21.00;;;;;14.64;49.51;99112.28;5050902;28;45350;-68
2022/03/11 11:08:04;;;;;;;;;25.00;23.00;;;;;14.65;50.29;99101.59;5050810;28;45430;-68
2022/03/11 11:10:32;;;;;;;;;20.33;18.00;;;;;14.66;50.43;99094.47;5048821;28;45480;-68
2022/03/11 11:12:58;;;;;;;;;27.00;25.33;;;;;14.69;50.00;99093.47;5051019;28;45400;-68
2022/03/11 11:15:24;;;;;;;;;25.33;23.00;;;;;14.76;49.36;99089.50;5046404;28;45390;-68
2022/03/11 11:17:50;;;;;;;;;32.67;27.67;;;;;14.84;49.64;99088.13;5051915;28;45382;-68